Time;durP1;ratioP1;P1;durP2;ratioP2;P2;SDS_P1;SDS_P2;PMS_P1;PMS_P2;Temp;Humidity;BMP_temperature;BMP_pressure;BME280_temperature;BME280_humidity;BME280_pressure;Samples;Min_cycle;Max_cycle;Signal;HPM_P1;HPM_P2
2022/08/10 00:00:53;;;;;;;;;;;18.80;93.60;;;;;;5085235;28;20288;-71
2022/08/10 00:03:20;;;;;;;;;;;18.70;93.60;;;;;;5085431;28;19987;-72
2022/08/10 00:05:47;;;;;;;;;;;18.70;93.60;;;;;;5085366;28;20055;-71
2022/08/10 00:08:14;;;;;;;;;;;18.70;93.80;;;;;;5085392;28;19935;-71
2022/08/10 00:10:42;;;;;;;;;;;18.60;94.30;;;;;;5085203;28;19927;-71
2022/08/10 00:13:08;;;;;;;;;;;18.50;94.00;;;;;;5084841;28;19987;-71
2022/08/10 00:15:35;;;;;;;;;;;18.50;94.10;;;;;;5084850;28;19959;-71
2022/08/10 00:18:02;;;;;;;;;;;18.50;94.20;;;;;;5085125;28;19952;-72
2022/08/10 00:20:28;;;;;;;;;;;18.50;94.20;;;;;;5084956;28;19983;-71
2022/08/10 00:22:55;;;;;;;;;;;18.40;94.20;;;;;;5083846;28;19987;-71
2022/08/10 00:25:22;;;;;;;;;;;18.40;94.40;;;;;;5084936;28;19952;-71
2022/08/10 00:27:50;;;;;;;;;;;18.30;94.40;;;;;;5084805;28;19960;-71
2022/08/10 00:30:16;;;;;;;;;;;18.30;94.50;;;;;;5084758;28;20003;-71
2022/08/10 00:32:43;;;;;;;;;;;18.30;94.70;;;;;;5084789;28;19983;-71
2022/08/10 00:35:10;;;;;;;;;;;18.20;94.70;;;;;;5084621;28;19951;-71
2022/08/10 00:37:36;;;;;;;;;;;18.10;94.90;;;;;;5084518;28;20220;-71
2022/08/10 00:40:03;;;;;;;;;;;18.10;95.00;;;;;;5084762;28;20160;-71
2022/08/10 00:42:30;;;;;;;;;;;18.10;95.20;;;;;;5084392;28;20158;-71
2022/08/10 00:44:58;;;;;;;;;;;18.00;95.30;;;;;;5084896;28;19963;-71
2022/08/10 00:47:25;;;;;;;;;;;17.90;95.40;;;;;;5083317;28;19991;-71
2022/08/10 00:49:51;;;;;;;;;;;17.90;95.60;;;;;;5084564;28;19947;-71
2022/08/10 00:52:20;;;;;;;;;;;17.90;95.70;;;;;;5084295;28;20263;-71
2022/08/10 00:54:47;;;;;;;;;;;17.80;95.80;;;;;;5084062;28;19943;-72
2022/08/10 00:57:14;;;;;;;;;;;17.80;96.00;;;;;;5083973;28;19959;-71
2022/08/10 00:59:41;;;;;;;;;;;17.70;96.10;;;;;;5084315;28;20183;-72
2022/08/10 01:02:09;;;;;;;;;;;17.70;96.20;;;;;;5084349;28;19948;-72
2022/08/10 01:04:36;;;;;;;;;;;17.60;96.30;;;;;;5083774;28;20267;-72
2022/08/10 01:07:12;;;;;;;;;;;17.60;96.60;;;;;;5084025;28;19959;-71
2022/08/10 01:09:42;;;;;;;;;;;17.60;96.70;;;;;;5083839;28;19952;-71
2022/08/10 01:12:12;;;;;;;;;;;17.50;96.80;;;;;;5083969;28;20242;-71
2022/08/10 01:14:42;;;;;;;;;;;17.50;97.00;;;;;;5083756;28;20199;-71
2022/08/10 01:17:13;;;;;;;;;;;17.40;97.20;;;;;;5083771;28;19959;-70
2022/08/10 01:19:47;;;;;;;;;;;17.30;97.30;;;;;;5083779;28;19943;-71
2022/08/10 01:22:25;;;;;;;;;;;17.30;97.70;;;;;;5083717;28;19995;-71
2022/08/10 01:24:58;;;;;;;;;;;17.20;97.80;;;;;;5083475;28;20227;-72
2022/08/10 01:27:28;;;;;;;;;;;17.10;98.00;;;;;;5083616;28;20286;-71
2022/08/10 01:29:59;;;;;;;;;;;17.10;98.20;;;;;;5083588;28;19958;-70
2022/08/10 01:32:32;;;;;;;;;;;17.00;98.50;;;;;;5083530;28;20224;-71
2022/08/10 01:35:03;;;;;;;;;;;17.00;98.80;;;;;;5083687;28;19996;-71
2022/08/10 01:37:32;;;;;;;;;;;17.00;99.10;;;;;;5083506;28;20107;-70
2022/08/10 01:39:59;;;;;;;;;;;16.90;99.30;;;;;;5083441;28;19958;-70
2022/08/10 01:42:28;;;;;;;;;;;16.80;99.60;;;;;;5083349;28;19926;-71
2022/08/10 01:44:56;;;;;;;;;;;16.70;99.90;;;;;;5082780;28;19959;-71
2022/08/10 01:50:13;;;;;;;;;;;16.60;99.90;;;;;;5083622;28;20230;-71
2022/08/10 01:52:41;;;;;;;;;;;16.60;99.90;;;;;;5082504;28;19958;-72
2022/08/10 01:55:09;;;;;;;;;;;16.60;99.90;;;;;;5083323;28;19943;-71
2022/08/10 01:57:37;;;;;;;;;;;16.50;99.90;;;;;;5083104;28;19983;-71
2022/08/10 02:00:04;;;;;;;;;;;16.50;99.90;;;;;;5083568;28;19959;-71
2022/08/10 02:02:33;;;;;;;;;;;16.50;99.90;;;;;;5083341;28;20123;-71
2022/08/10 02:05:02;;;;;;;;;;;16.40;99.90;;;;;;5083109;28;19983;-71
2022/08/10 02:07:30;;;;;;;;;;;16.40;99.90;;;;;;5083166;28;19920;-71
2022/08/10 02:09:58;;;;;;;;;;;16.30;99.90;;;;;;5083603;28;19920;-71
2022/08/10 02:12:28;;;;;;;;;;;16.30;99.90;;;;;;5083283;28;19963;-70
2022/08/10 02:14:56;;;;;;;;;;;16.30;99.90;;;;;;5083180;28;19920;-71
2022/08/10 02:17:25;;;;;;;;;;;16.20;99.90;;;;;;5083055;28;19956;-70
2022/08/10 02:19:54;;;;;;;;;;;16.10;99.90;;;;;;5083275;28;19927;-70
2022/08/10 02:22:22;;;;;;;;;;;16.10;99.90;;;;;;5082982;28;19983;-70
2022/08/10 02:24:49;;;;;;;;;;;16.10;99.90;;;;;;5083033;28;19966;-70
2022/08/10 02:27:17;;;;;;;;;;;16.00;99.90;;;;;;5083187;28;19988;-70
2022/08/10 02:29:44;;;;;;;;;;;16.00;99.90;;;;;;5083128;28;19992;-71
2022/08/10 02:32:12;;;;;;;;;;;16.00;99.90;;;;;;5083001;28;20292;-71
2022/08/10 02:34:39;;;;;;;;;;;15.90;99.90;;;;;;5082580;28;19920;-71
2022/08/10 02:37:08;;;;;;;;;;;15.90;99.90;;;;;;5082797;28;19927;-71
2022/08/10 02:39:35;;;;;;;;;;;15.90;99.90;;;;;;5082869;28;20035;-71
2022/08/10 02:42:03;;;;;;;;;;;15.90;99.90;;;;;;5082910;28;20000;-71
2022/08/10 02:44:33;;;;;;;;;;;15.90;99.90;;;;;;5081844;28;19926;-71
2022/08/10 02:47:02;;;;;;;;;;;15.90;99.90;;;;;;5086615;28;19966;-71
2022/08/10 02:49:40;;;;;;;;;;;15.80;99.90;;;;;;5086456;28;20160;-70
2022/08/10 02:52:11;;;;;;;;;;;15.80;99.90;;;;;;5086870;28;19983;-70
2022/08/10 02:54:39;;;;;;;;;;;15.80;99.90;;;;;;5086043;28;19955;-72
2022/08/10 02:57:13;;;;;;;;;;;15.80;99.90;;;;;;5086269;28;19968;-73
2022/08/10 02:59:42;;;;;;;;;;;15.70;99.90;;;;;;5086500;28;19980;-71
2022/08/10 03:02:11;;;;;;;;;;;15.70;99.90;;;;;;5086259;28;19963;-72
2022/08/10 03:04:40;;;;;;;;;;;15.60;99.90;;;;;;5086113;28;19927;-70
2022/08/10 03:07:11;;;;;;;;;;;15.60;99.90;;;;;;5086241;28;19964;-71
2022/08/10 03:09:38;;;;;;;;;;;15.60;99.90;;;;;;5086245;28;19967;-71
2022/08/10 03:12:07;;;;;;;;;;;15.60;99.90;;;;;;5086190;28;19927;-71
2022/08/10 03:14:35;;;;;;;;;;;15.50;99.90;;;;;;5086221;28;19931;-71
2022/08/10 03:17:03;;;;;;;;;;;15.50;99.90;;;;;;5086333;28;19958;-71
2022/08/10 03:19:30;;;;;;;;;;;15.50;99.90;;;;;;5086324;28;19963;-71
2022/08/10 03:21:58;;;;;;;;;;;15.40;99.90;;;;;;5085957;28;19987;-71
2022/08/10 03:24:26;;;;;;;;;;;15.40;99.90;;;;;;5085753;28;20003;-72
2022/08/10 03:26:53;;;;;;;;;;;15.40;99.90;;;;;;5085968;28;20167;-72
2022/08/10 03:29:21;;;;;;;;;;;15.30;99.90;;;;;;5085886;28;20000;-71
2022/08/10 03:31:48;;;;;;;;;;;15.30;99.90;;;;;;5086295;28;19987;-71
2022/08/10 03:34:16;;;;;;;;;;;15.30;99.90;;;;;;5085697;28;20123;-71
2022/08/10 03:36:43;;;;;;;;;;;15.20;99.90;;;;;;5085518;28;19992;-71
2022/08/10 03:39:12;;;;;;;;;;;15.10;99.90;;;;;;5085149;28;20393;-72
2022/08/10 03:41:42;;;;;;;;;;;15.00;99.90;;;;;;5085666;28;20188;-71
2022/08/10 03:44:10;;;;;;;;;;;15.00;99.90;;;;;;5084504;28;20219;-71
2022/08/10 03:46:38;;;;;;;;;;;14.90;99.90;;;;;;5085804;28;19995;-70
2022/08/10 03:49:05;;;;;;;;;;;14.80;99.90;;;;;;5085436;28;19967;-70
2022/08/10 03:51:33;;;;;;;;;;;14.80;99.90;;;;;;5086097;28;19927;-70
2022/08/10 03:54:00;;;;;;;;;;;14.80;99.90;;;;;;5085294;28;19952;-71
2022/08/10 03:56:27;;;;;;;;;;;14.70;99.90;;;;;;5084337;28;19967;-71
2022/08/10 03:58:55;;;;;;;;;;;14.70;99.90;;;;;;5085450;28;19920;-71
2022/08/10 04:01:22;;;;;;;;;;;14.70;99.90;;;;;;5085212;28;19983;-71
2022/08/10 04:03:48;;;;;;;;;;;14.70;99.90;;;;;;5085275;28;19956;-71
2022/08/10 04:06:15;;;;;;;;;;;14.60;99.90;;;;;;5085349;28;20008;-71
2022/08/10 04:08:42;;;;;;;;;;;14.60;99.90;;;;;;5085071;28;19988;-71
2022/08/10 04:11:09;;;;;;;;;;;14.60;99.90;;;;;;5085063;28;20208;-71
2022/08/10 04:13:36;;;;;;;;;;;14.60;99.90;;;;;;5084789;28;19956;-71
2022/08/10 04:16:04;;;;;;;;;;;14.60;99.90;;;;;;5085223;28;19988;-71
2022/08/10 04:18:31;;;;;;;;;;;14.50;99.90;;;;;;5085220;28;19927;-71
2022/08/10 04:21:01;;;;;;;;;;;14.60;99.90;;;;;;5085096;28;19963;-72
2022/08/10 04:23:29;;;;;;;;;;;14.50;99.90;;;;;;5084583;28;20187;-71
2022/08/10 04:25:56;;;;;;;;;;;14.50;99.90;;;;;;5084931;28;19979;-72
2022/08/10 04:28:23;;;;;;;;;;;14.50;99.90;;;;;;5085300;28;19927;-72
2022/08/10 04:30:51;;;;;;;;;;;14.50;99.90;;;;;;5085020;28;19920;-71
2022/08/10 04:33:21;;;;;;;;;;;14.50;99.90;;;;;;5084532;28;20161;-70
2022/08/10 04:35:49;;;;;;;;;;;14.50;99.90;;;;;;5084370;28;20247;-70
2022/08/10 04:38:17;;;;;;;;;;;14.50;99.90;;;;;;5084962;28;19956;-71
2022/08/10 04:40:46;;;;;;;;;;;14.50;99.90;;;;;;5084842;28;19924;-71
2022/08/10 04:43:12;;;;;;;;;;;14.50;99.90;;;;;;5084538;28;19963;-71
2022/08/10 04:45:39;;;;;;;;;;;14.50;99.90;;;;;;5084628;28;19952;-71
2022/08/10 04:48:06;;;;;;;;;;;14.60;99.90;;;;;;5083674;28;19920;-71
2022/08/10 04:50:34;;;;;;;;;;;14.60;99.90;;;;;;5084460;28;19999;-71
2022/08/10 04:53:01;;;;;;;;;;;14.60;99.90;;;;;;5083520;28;19980;-71
2022/08/10 04:55:27;;;;;;;;;;;14.60;99.90;;;;;;5084323;28;19963;-71
2022/08/10 04:57:54;;;;;;;;;;;14.60;99.90;;;;;;5084070;28;20117;-71
2022/08/10 05:00:21;;;;;;;;;;;14.60;99.90;;;;;;5084315;28;20236;-71
2022/08/10 05:02:47;;;;;;;;;;;14.70;99.90;;;;;;5084038;28;19956;-71
2022/08/10 05:05:14;;;;;;;;;;;14.70;99.90;;;;;;5084307;28;19983;-71
2022/08/10 05:07:42;;;;;;;;;;;14.70;99.90;;;;;;5083939;28;19983;-71
2022/08/10 05:10:09;;;;;;;;;;;14.70;99.90;;;;;;5084184;28;19920;-71
2022/08/10 05:12:36;;;;;;;;;;;14.80;99.90;;;;;;5083923;28;20232;-71
2022/08/10 05:15:03;;;;;;;;;;;14.80;99.90;;;;;;5083975;28;19920;-71
2022/08/10 05:17:30;;;;;;;;;;;14.80;99.90;;;;;;5083791;28;19963;-71
2022/08/10 05:19:57;;;;;;;;;;;14.90;99.90;;;;;;5084304;28;19996;-71
2022/08/10 05:22:23;;;;;;;;;;;15.00;99.90;;;;;;5083583;28;19927;-71
2022/08/10 05:24:51;;;;;;;;;;;15.10;99.90;;;;;;5083532;28;19920;-72
2022/08/10 05:27:18;;;;;;;;;;;15.10;99.90;;;;;;5083757;28;19988;-71
2022/08/10 05:29:45;;;;;;;;;;;15.20;99.90;;;;;;5083707;28;19927;-71
2022/08/10 05:32:11;;;;;;;;;;;15.30;99.90;;;;;;5083555;28;19927;-71
2022/08/10 05:34:38;;;;;;;;;;;15.30;99.90;;;;;;5083484;28;19956;-71
2022/08/10 05:37:08;;;;;;;;;;;15.50;99.90;;;;;;5083314;28;19980;-71
2022/08/10 05:39:35;;;;;;;;;;;15.60;99.90;;;;;;5083297;28;19991;-71
2022/08/10 05:42:03;;;;;;;;;;;15.70;99.90;;;;;;5083605;28;19980;-71
2022/08/10 05:44:30;;;;;;;;;;;15.80;99.90;;;;;;5083151;28;19920;-71
2022/08/10 05:46:57;;;;;;;;;;;15.90;99.90;;;;;;5083445;28;19920;-71
2022/08/10 05:49:23;;;;;;;;;;;16.00;99.90;;;;;;5083354;28;20160;-71
2022/08/10 05:51:50;;;;;;;;;;;16.20;99.90;;;;;;5083369;28;20257;-71
2022/08/10 05:54:17;;;;;;;;;;;16.30;99.90;;;;;;5083268;28;19979;-70
2022/08/10 05:56:45;;;;;;;;;;;16.40;99.90;;;;;;5083559;28;19920;-73
2022/08/10 05:59:13;;;;;;;;;;;16.50;99.90;;;;;;5083342;28;19955;-73
2022/08/10 06:01:42;;;;;;;;;;;16.60;99.90;;;;;;5083358;28;20166;-70
2022/08/10 06:04:10;;;;;;;;;;;16.70;99.90;;;;;;5083229;28;20259;-73
2022/08/10 06:06:38;;;;;;;;;;;16.70;99.90;;;;;;5083171;28;19920;-73
2022/08/10 06:09:05;;;;;;;;;;;16.80;99.90;;;;;;5083497;28;20225;-73
2022/08/10 06:11:33;;;;;;;;;;;16.90;99.90;;;;;;5083242;28;19920;-71
2022/08/10 06:16:45;;;;;;;;;;;17.10;99.90;;;;;;5083318;28;19923;-71
2022/08/10 06:19:12;;;;;;;;;;;17.30;99.90;;;;;;5083183;28;19952;-72
2022/08/10 06:21:39;;;;;;;;;;;17.40;99.90;;;;;;5086267;28;19995;-71
2022/08/10 06:24:08;;;;;;;;;;;17.50;99.90;;;;;;5087078;28;19935;-71
2022/08/10 06:26:34;;;;;;;;;;;17.80;99.90;;;;;;5087443;28;19927;-70
2022/08/10 06:29:05;;;;;;;;;;;17.90;99.90;;;;;;5087259;28;19955;-70
2022/08/10 06:31:33;;;;;;;;;;;18.00;99.90;;;;;;5087165;28;19966;-71
2022/08/10 06:34:02;;;;;;;;;;;18.20;99.90;;;;;;5086810;28;19955;-71
2022/08/10 06:36:30;;;;;;;;;;;18.30;99.90;;;;;;5086755;28;19920;-71
2022/08/10 06:38:57;;;;;;;;;;;18.40;99.90;;;;;;5086783;28;19967;-71
2022/08/10 06:41:25;;;;;;;;;;;18.50;99.90;;;;;;5086799;28;20259;-71
2022/08/10 06:43:57;;;;;;;;;;;18.50;99.90;;;;;;5086429;28;20251;-71
2022/08/10 06:46:24;;;;;;;;;;;18.60;99.90;;;;;;5087254;28;19924;-71
2022/08/10 06:48:52;;;;;;;;;;;18.70;99.90;;;;;;5086893;28;19952;-72
2022/08/10 06:51:22;;;;;;;;;;;18.80;99.90;;;;;;5086653;28;19983;-70
2022/08/10 06:53:50;;;;;;;;;;;18.90;99.90;;;;;;5086123;28;20208;-71
2022/08/10 06:56:19;;;;;;;;;;;19.00;99.90;;;;;;5086097;28;19920;-70
2022/08/10 06:58:46;;;;;;;;;;;19.10;99.90;;;;;;5086665;28;19920;-70
2022/08/10 07:01:14;;;;;;;;;;;19.20;99.90;;;;;;5086472;28;20051;-70
2022/08/10 07:03:42;;;;;;;;;;;19.20;99.90;;;;;;5086110;28;19952;-71
2022/08/10 07:06:11;;;;;;;;;;;19.30;99.90;;;;;;5086170;28;20200;-71
2022/08/10 07:08:39;;;;;;;;;;;19.50;99.90;;;;;;5086558;28;20247;-71
2022/08/10 07:11:09;;;;;;;;;;;19.50;99.90;;;;;;5095708;28;19956;-71
2022/08/10 07:13:37;;;;;;;;;;;19.60;99.90;;;;;;5098284;28;19936;-71
2022/08/10 07:16:05;;;;;;;;;;;19.70;99.90;;;;;;5086872;28;20118;-70
2022/08/10 07:18:32;;;;;;;;;;;19.80;99.90;;;;;;5086222;28;19928;-70
2022/08/10 07:21:00;;;;;;;;;;;19.90;99.90;;;;;;5086336;28;19955;-71
2022/08/10 07:23:27;;;;;;;;;;;20.00;99.90;;;;;;5085606;28;19961;-70
2022/08/10 07:25:57;;;;;;;;;;;20.10;99.90;;;;;;5086101;28;19926;-71
2022/08/10 07:28:23;;;;;;;;;;;20.20;99.90;;;;;;5085965;28;19927;-70
2022/08/10 07:30:51;;;;;;;;;;;20.30;99.90;;;;;;5085655;28;19992;-71
2022/08/10 07:33:19;;;;;;;;;;;20.40;99.90;;;;;;5086169;28;19981;-70
2022/08/10 07:35:50;;;;;;;;;;;20.50;99.90;;;;;;5085814;28;19921;-71
2022/08/10 07:38:18;;;;;;;;;;;20.70;99.90;;;;;;5086009;28;19975;-71
2022/08/10 07:40:45;;;;;;;;;;;20.80;99.90;;;;;;5085822;28;19920;-70
2022/08/10 07:43:13;;;;;;;;;;;20.90;99.90;;;;;;5086039;28;19987;-70
2022/08/10 07:45:40;;;;;;;;;;;21.00;99.90;;;;;;5084875;28;20258;-70
2022/08/10 07:48:09;;;;;;;;;;;21.10;99.90;;;;;;5084880;28;20187;-70
2022/08/10 07:50:37;;;;;;;;;;;21.20;99.90;;;;;;5085518;28;20234;-70
2022/08/10 07:53:04;;;;;;;;;;;21.30;99.90;;;;;;5086464;28;19987;-70
2022/08/10 07:55:32;;;;;;;;;;;21.50;99.90;;;;;;5085679;28;19963;-71
2022/08/10 07:58:00;;;;;;;;;;;21.60;99.90;;;;;;5076462;28;19987;-71
2022/08/10 08:00:29;;;;;;;;;;;21.70;99.90;;;;;;5085511;28;19920;-71
2022/08/10 08:02:57;;;;;;;;;;;21.80;99.90;;;;;;5085120;28;19926;-71
2022/08/10 08:05:24;;;;;;;;;;;21.80;99.90;;;;;;5085208;28;19951;-71
2022/08/10 08:07:52;;;;;;;;;;;21.90;99.90;;;;;;5085407;28;19921;-71
2022/08/10 08:10:19;;;;;;;;;;;22.10;99.90;;;;;;5085204;28;19987;-70
2022/08/10 08:12:46;;;;;;;;;;;22.20;99.80;;;;;;5084847;28;20176;-70
2022/08/10 08:15:14;;;;;;;;;;;22.30;99.00;;;;;;5085631;28;19921;-71
2022/08/10 08:17:43;;;;;;;;;;;22.30;98.60;;;;;;5085655;28;19974;-70
2022/08/10 08:20:10;;;;;;;;;;;22.50;97.80;;;;;;5085216;28;19952;-70
2022/08/10 08:22:37;;;;;;;;;;;22.50;97.80;;;;;;5084050;28;19959;-71
2022/08/10 08:25:04;;;;;;;;;;;22.60;97.70;;;;;;5084769;28;19963;-71
2022/08/10 08:27:32;;;;;;;;;;;22.60;97.50;;;;;;5085129;28;19943;-71
2022/08/10 08:30:07;;;;;;;;;;;22.70;96.80;;;;;;5085073;28;19920;-70
2022/08/10 08:32:36;;;;;;;;;;;22.90;96.30;;;;;;5084964;28;19920;-70
2022/08/10 08:35:05;;;;;;;;;;;22.90;96.00;;;;;;5084738;28;20026;-70
2022/08/10 08:37:33;;;;;;;;;;;23.00;96.30;;;;;;5084792;28;19983;-71
2022/08/10 08:40:01;;;;;;;;;;;23.10;96.00;;;;;;5084712;28;19921;-71
2022/08/10 08:42:35;;;;;;;;;;;23.20;95.40;;;;;;5084051;28;19943;-70
2022/08/10 08:45:08;;;;;;;;;;;23.30;94.10;;;;;;5083948;28;19958;-70
2022/08/10 08:48:02;;;;;;;;;;;23.40;94.20;;;;;;5084718;28;20231;-71
2022/08/10 08:50:36;;;;;;;;;;;23.40;94.20;;;;;;5060526;28;19955;-71
2022/08/10 08:53:09;;;;;;;;;;;23.40;93.80;;;;;;5085674;28;19927;-71
2022/08/10 08:55:42;;;;;;;;;;;23.40;93.90;;;;;;5084678;28;19920;-71
2022/08/10 08:58:18;;;;;;;;;;;23.60;93.90;;;;;;5084404;28;19983;-71
2022/08/10 09:00:49;;;;;;;;;;;23.60;93.70;;;;;;5084935;28;19960;-71
2022/08/10 09:03:21;;;;;;;;;;;23.70;93.60;;;;;;5084516;28;19959;-71
2022/08/10 09:05:54;;;;;;;;;;;23.70;93.30;;;;;;5084747;28;19920;-71
2022/08/10 09:08:36;;;;;;;;;;;23.80;92.50;;;;;;5084448;28;19921;-71
2022/08/10 09:11:08;;;;;;;;;;;23.80;92.80;;;;;;5083985;28;19991;-71
2022/08/10 09:13:39;;;;;;;;;;;24.00;92.40;;;;;;5084026;28;19927;-71
2022/08/10 09:16:10;;;;;;;;;;;24.00;92.20;;;;;;5084058;28;19952;-71
2022/08/10 09:18:41;;;;;;;;;;;24.10;92.30;;;;;;5083950;28;20230;-71
2022/08/10 09:21:15;;;;;;;;;;;24.30;91.10;;;;;;5083749;28;20045;-72
2022/08/10 09:23:45;;;;;;;;;;;24.30;90.70;;;;;;5083765;28;19955;-71
2022/08/10 09:26:18;;;;;;;;;;;24.20;90.20;;;;;;5083942;28;19952;-71
2022/08/10 09:28:45;;;;;;;;;;;24.20;90.60;;;;;;5083707;28;20250;-70
2022/08/10 09:31:12;;;;;;;;;;;24.30;90.80;;;;;;5083547;28;19988;-72
2022/08/10 09:33:44;;;;;;;;;;;24.50;90.30;;;;;;5083490;28;19951;-72
2022/08/10 09:36:26;;;;;;;;;;;24.60;89.90;;;;;;5083864;28;19948;-71
2022/08/10 09:38:58;;;;;;;;;;;24.70;89.40;;;;;;5083937;28;19966;-71
2022/08/10 09:41:30;;;;;;;;;;;24.80;88.90;;;;;;5083761;28;19929;-70
2022/08/10 09:44:05;;;;;;;;;;;24.80;87.90;;;;;;5083354;28;19920;-70
2022/08/10 09:46:36;;;;;;;;;;;24.90;87.40;;;;;;5082978;28;19991;-72
2022/08/10 09:49:05;;;;;;;;;;;25.00;85.90;;;;;;5083850;28;19932;-71
2022/08/10 09:51:39;;;;;;;;;;;25.00;85.50;;;;;;5083695;28;19920;-70
2022/08/10 09:54:15;;;;;;;;;;;25.00;83.40;;;;;;5082579;28;19956;-71
2022/08/10 09:56:47;;;;;;;;;;;25.00;82.80;;;;;;5082803;28;19963;-70
2022/08/10 09:59:19;;;;;;;;;;;25.00;81.90;;;;;;5083779;28;20116;-70
2022/08/10 10:01:51;;;;;;;;;;;24.90;82.60;;;;;;5083544;28;20203;-70
2022/08/10 10:04:21;;;;;;;;;;;25.00;82.40;;;;;;5083098;28;20188;-72
2022/08/10 10:06:53;;;;;;;;;;;25.20;81.00;;;;;;5083150;28;19920;-71
2022/08/10 10:09:25;;;;;;;;;;;25.30;80.10;;;;;;5083073;28;19988;-70
2022/08/10 10:11:56;;;;;;;;;;;25.20;80.00;;;;;;5083106;28;19963;-70
2022/08/10 10:14:29;;;;;;;;;;;25.20;77.80;;;;;;5083087;28;20101;-71
2022/08/10 10:17:01;;;;;;;;;;;25.10;73.60;;;;;;5082981;28;20208;-71
2022/08/10 10:19:46;;;;;;;;;;;25.10;74.50;;;;;;5083015;28;19952;-71
2022/08/10 10:22:24;;;;;;;;;;;25.20;72.30;;;;;;5082877;28;20228;-70
2022/08/10 10:24:55;;;;;;;;;;;25.30;73.40;;;;;;5082951;28;19920;-70
2022/08/10 10:27:36;;;;;;;;;;;25.50;73.60;;;;;;5083027;28;20228;-71
2022/08/10 10:30:05;;;;;;;;;;;25.70;74.40;;;;;;5082838;28;19924;-70
2022/08/10 10:32:39;;;;;;;;;;;25.80;72.80;;;;;;5083100;28;19983;-71
2022/08/10 10:35:11;;;;;;;;;;;25.80;74.40;;;;;;5083381;28;19962;-70
2022/08/10 10:37:39;;;;;;;;;;;25.90;74.20;;;;;;5082838;28;19920;-71
2022/08/10 10:40:07;;;;;;;;;;;26.10;74.70;;;;;;5083065;28;20260;-71
2022/08/10 10:42:37;;;;;;;;;;;26.30;73.40;;;;;;5082796;28;19921;-70
2022/08/10 10:45:09;;;;;;;;;;;26.40;73.60;;;;;;5083065;28;19955;-71
2022/08/10 10:47:48;;;;;;;;;;;26.50;73.90;;;;;;5082979;28;19990;-70
2022/08/10 10:50:17;;;;;;;;;;;26.70;73.00;;;;;;5083047;28;19928;-69
2022/08/10 10:52:51;;;;;;;;;;;26.90;73.40;;;;;;5082565;28;19955;-71
2022/08/10 10:55:19;;;;;;;;;;;27.10;71.80;;;;;;5082681;28;19987;-70
2022/08/10 10:57:51;;;;;;;;;;;27.20;70.10;;;;;;5083257;28;20228;-72
2022/08/10 11:00:20;;;;;;;;;;;27.10;72.00;;;;;;5083278;28;19952;-72
2022/08/10 11:02:59;;;;;;;;;;;27.00;69.00;;;;;;5082832;28;19988;-71
2022/08/10 11:05:29;;;;;;;;;;;26.80;68.90;;;;;;5082759;28;19948;-72
2022/08/10 11:07:59;;;;;;;;;;;26.80;69.30;;;;;;5086491;28;20208;-71
2022/08/10 11:10:29;;;;;;;;;;;26.90;70.30;;;;;;5086404;28;19920;-71
2022/08/10 11:13:01;;;;;;;;;;;26.90;69.50;;;;;;5086056;28;19928;-71
2022/08/10 11:15:31;;;;;;;;;;;27.00;69.60;;;;;;5086339;28;19920;-71
2022/08/10 11:18:01;;;;;;;;;;;26.90;69.30;;;;;;5086255;28;19927;-71
2022/08/10 11:20:31;;;;;;;;;;;27.10;70.20;;;;;;5086223;28;19920;-71
2022/08/10 11:23:03;;;;;;;;;;;27.10;67.90;;;;;;5086011;28;19952;-70
2022/08/10 11:25:31;;;;;;;;;;;27.40;68.20;;;;;;5086197;28;19952;-70
2022/08/10 11:28:00;;;;;;;;;;;27.60;67.40;;;;;;5085983;28;19920;-71
2022/08/10 11:30:31;;;;;;;;;;;27.70;68.20;;;;;;5085848;28;19952;-70
2022/08/10 11:33:07;;;;;;;;;;;27.70;67.40;;;;;;5086047;28;19988;-70
2022/08/10 11:35:38;;;;;;;;;;;27.70;69.40;;;;;;5085691;28;19959;-71
2022/08/10 11:38:12;;;;;;;;;;;27.70;69.40;;;;;;5085911;28;19943;-71
2022/08/10 11:40:43;;;;;;;;;;;27.80;70.50;;;;;;5086085;28;19928;-71
2022/08/10 11:43:13;;;;;;;;;;;27.80;69.40;;;;;;5085940;28;19932;-71
2022/08/10 11:45:41;;;;;;;;;;;28.00;68.60;;;;;;5085823;28;19924;-71
2022/08/10 11:48:10;;;;;;;;;;;28.30;68.70;;;;;;5085830;28;19992;-71
2022/08/10 11:50:43;;;;;;;;;;;28.50;69.00;;;;;;5085697;28;19987;-71
2022/08/10 11:53:15;;;;;;;;;;;28.50;69.70;;;;;;5085454;28;19971;-71
2022/08/10 11:55:44;;;;;;;;;;;28.50;69.00;;;;;;5085477;28;19928;-70
2022/08/10 12:00:55;;;;;;;;;;;28.10;68.70;;;;;;5084518;28;19917;-71
2022/08/10 12:03:22;;;;;;;;;;;27.80;68.60;;;;;;5085185;28;19988;-70
2022/08/10 12:05:52;;;;;;;;;;;27.80;69.00;;;;;;5085157;28;19959;-71
2022/08/10 12:08:21;;;;;;;;;;;27.90;70.10;;;;;;5085391;28;19924;-70
2022/08/10 12:10:49;;;;;;;;;;;27.90;69.50;;;;;;5085218;28;19978;-72
2022/08/10 12:13:19;;;;;;;;;;;27.80;70.30;;;;;;5085042;28;19952;-70
2022/08/10 12:15:51;;;;;;;;;;;28.00;69.90;;;;;;5085176;28;19963;-71
2022/08/10 12:18:19;;;;;;;;;;;28.10;69.90;;;;;;5083977;28;19920;-72
2022/08/10 12:20:49;;;;;;;;;;;28.30;69.90;;;;;;5085342;28;20016;-71
2022/08/10 12:23:19;;;;;;;;;;;28.30;69.80;;;;;;5084926;28;19966;-70
2022/08/10 12:25:51;;;;;;;;;;;28.10;68.70;;;;;;5085145;28;19983;-71
2022/08/10 12:28:20;;;;;;;;;;;28.00;69.40;;;;;;5084974;28;20213;-71
2022/08/10 12:30:50;;;;;;;;;;;28.00;69.60;;;;;;5084709;28;19983;-72
2022/08/10 12:33:20;;;;;;;;;;;28.10;69.40;;;;;;5084815;28;19921;-72
2022/08/10 12:35:50;;;;;;;;;;;28.10;70.00;;;;;;5085148;28;19955;-72
2022/08/10 12:38:20;;;;;;;;;;;28.10;70.30;;;;;;5084848;28;19921;-71
2022/08/10 12:40:53;;;;;;;;;;;28.20;69.30;;;;;;5084850;28;19927;-71
2022/08/10 12:43:23;;;;;;;;;;;28.00;68.80;;;;;;5084273;28;19983;-71
2022/08/10 12:45:56;;;;;;;;;;;27.90;69.20;;;;;;5084657;28;20144;-70
2022/08/10 12:48:26;;;;;;;;;;;27.90;68.70;;;;;;5084698;28;19955;-70
2022/08/10 12:50:55;;;;;;;;;;;27.90;68.50;;;;;;5084452;28;19983;-70
2022/08/10 12:53:30;;;;;;;;;;;28.00;68.50;;;;;;5083852;28;19983;-71
2022/08/10 12:56:00;;;;;;;;;;;28.30;70.10;;;;;;5084173;28;19982;-71
2022/08/10 12:58:28;;;;;;;;;;;28.80;68.30;;;;;;5084529;28;19955;-71
2022/08/10 13:00:55;;;;;;;;;;;29.20;66.80;;;;;;5084283;28;19983;-71
2022/08/10 13:03:23;;;;;;;;;;;29.40;65.70;;;;;;5083996;28;19956;-71
2022/08/10 13:05:50;;;;;;;;;;;29.50;65.90;;;;;;5084143;28;19927;-71
2022/08/10 13:11:04;;;;;;;;;;;29.30;65.70;;;;;;5084058;28;19963;-70
2022/08/10 13:13:32;;;;;;;;;;;29.00;65.70;;;;;;5083875;28;19971;-72
2022/08/10 13:15:59;;;;;;;;;;;28.80;65.50;;;;;;5084152;28;19987;-71
2022/08/10 13:18:27;;;;;;;;;;;28.80;65.60;;;;;;5083967;28;19920;-71
2022/08/10 13:20:55;;;;;;;;;;;28.80;65.20;;;;;;5083818;28;19921;-71
2022/08/10 13:23:25;;;;;;;;;;;29.10;65.80;;;;;;5083902;28;19920;-70
2022/08/10 13:25:52;;;;;;;;;;;29.50;65.10;;;;;;5084029;28;19949;-71
2022/08/10 13:28:22;;;;;;;;;;;29.70;62.60;;;;;;5083877;28;19991;-71
2022/08/10 13:30:49;;;;;;;;;;;30.10;63.30;;;;;;5083607;28;19959;-71
2022/08/10 13:33:17;;;;;;;;;;;30.10;62.20;;;;;;5083237;28;19991;-71
2022/08/10 13:35:44;;;;;;;;;;;29.60;61.50;;;;;;5083431;28;19935;-71
2022/08/10 13:38:14;;;;;;;;;;;29.50;62.50;;;;;;5083835;28;19927;-70
2022/08/10 13:40:41;;;;;;;;;;;29.40;62.60;;;;;;5083683;28;19926;-70
2022/08/10 13:43:08;;;;;;;;;;;29.30;62.20;;;;;;5083293;28;19983;-71
2022/08/10 13:45:39;;;;;;;;;;;29.20;62.70;;;;;;5083501;28;19952;-71
2022/08/10 13:48:09;;;;;;;;;;;29.30;63.20;;;;;;5083452;28;20181;-71
2022/08/10 13:50:36;;;;;;;;;;;29.50;61.90;;;;;;5083411;28;20112;-71
2022/08/10 13:53:04;;;;;;;;;;;29.70;61.40;;;;;;5082149;28;20115;-71
2022/08/10 13:55:31;;;;;;;;;;;29.80;61.00;;;;;;5083431;28;20164;-71
2022/08/10 13:57:59;;;;;;;;;;;29.90;61.20;;;;;;5083614;28;19955;-71
2022/08/10 14:00:29;;;;;;;;;;;29.90;60.80;;;;;;5083295;28;19920;-70
2022/08/10 14:03:00;;;;;;;;;;;30.00;61.10;;;;;;5083332;28;19987;-71
2022/08/10 14:05:29;;;;;;;;;;;30.10;60.50;;;;;;5083315;28;19954;-71
2022/08/10 14:07:57;;;;;;;;;;;30.20;60.20;;;;;;5083370;28;19920;-71
2022/08/10 14:10:24;;;;;;;;;;;30.20;59.70;;;;;;5083288;28;19987;-71
2022/08/10 14:12:52;;;;;;;;;;;30.20;59.40;;;;;;5082846;28;19995;-71
2022/08/10 14:15:20;;;;;;;;;;;30.30;59.30;;;;;;5083472;28;20003;-71
2022/08/10 14:17:49;;;;;;;;;;;30.30;58.80;;;;;;5083385;28;19921;-73
2022/08/10 14:20:17;;;;;;;;;;;30.20;59.10;;;;;;5083527;28;19954;-70
2022/08/10 14:22:44;;;;;;;;;;;30.30;59.10;;;;;;5082866;28;19925;-71
2022/08/10 14:25:12;;;;;;;;;;;30.40;58.40;;;;;;5083088;28;19992;-71
2022/08/10 14:27:40;;;;;;;;;;;30.30;58.40;;;;;;5082843;28;19952;-71
2022/08/10 14:30:08;;;;;;;;;;;30.40;59.30;;;;;;5083299;28;19993;-71
2022/08/10 14:32:41;;;;;;;;;;;30.60;58.30;;;;;;5083256;28;19929;-72
2022/08/10 14:35:08;;;;;;;;;;;30.60;58.60;;;;;;5083028;28;19992;-72
2022/08/10 14:37:37;;;;;;;;;;;30.80;58.30;;;;;;5097221;22;19995;-67